Time;durP1;ratioP1;P1;durP2;ratioP2;P2;SDS_P1;SDS_P2;PMS_P1;PMS_P2;Temp;Humidity;BMP_temperature;BMP_pressure;BME280_temperature;BME280_humidity;BME280_pressure;Samples;Min_cycle;Max_cycle;Signal;HPM_P1;HPM_P2
2022/07/04 00:01:14;;;;;;;3.70;2.30;;;17.30;99.90;;;;;;5034336;28;20176;-80
2022/07/04 00:03:39;;;;;;;2.80;1.53;;;17.30;99.90;;;;;;5033739;28;20196;-80
2022/07/04 00:06:06;;;;;;;4.20;1.90;;;17.20;99.90;;;;;;5035526;28;20212;-80
2022/07/04 00:08:31;;;;;;;4.30;1.37;;;17.30;99.90;;;;;;5035798;28;20643;-80
2022/07/04 00:10:57;;;;;;;4.37;1.97;;;17.30;99.90;;;;;;5035874;28;20427;-80
2022/07/04 00:13:23;;;;;;;3.37;2.10;;;17.30;99.90;;;;;;5035717;28;20180;-80
2022/07/04 00:15:49;;;;;;;2.73;2.13;;;17.30;99.90;;;;;;5035221;28;20199;-80
2022/07/04 00:18:15;;;;;;;4.10;1.53;;;17.20;99.90;;;;;;5035058;28;20250;-79
2022/07/04 00:20:41;;;;;;;2.57;1.67;;;17.10;99.90;;;;;;5035490;28;20226;-80
2022/07/04 00:23:06;;;;;;;3.77;1.93;;;17.00;99.90;;;;;;5034327;28;20518;-80
2022/07/04 00:25:32;;;;;;;2.70;1.60;;;17.10;99.90;;;;;;5034570;28;20196;-80
2022/07/04 00:27:58;;;;;;;2.67;1.40;;;17.10;99.90;;;;;;5051580;28;20206;-80
2022/07/04 00:30:24;;;;;;;4.80;2.00;;;17.10;99.90;;;;;;5034689;28;20694;-80
2022/07/04 00:32:50;;;;;;;2.90;1.90;;;16.90;99.90;;;;;;5034955;28;20268;-80
2022/07/04 00:35:15;;;;;;;3.70;1.87;;;16.90;99.90;;;;;;5034433;28;20190;-79
2022/07/04 00:37:41;;;;;;;3.90;1.63;;;16.90;99.90;;;;;;5033987;28;20737;-80
2022/07/04 00:40:08;;;;;;;3.20;1.80;;;16.80;99.90;;;;;;5034090;28;20176;-80
2022/07/04 00:42:33;;;;;;;3.63;1.87;;;16.80;99.90;;;;;;5033944;28;20191;-80
2022/07/04 00:44:59;;;;;;;3.60;1.80;;;16.80;99.90;;;;;;5033382;28;20545;-79
2022/07/04 00:47:25;;;;;;;3.07;1.17;;;16.80;99.90;;;;;;5033355;28;20231;-79
2022/07/04 00:49:51;;;;;;;2.63;1.70;;;16.80;99.90;;;;;;5033472;28;20180;-80
2022/07/04 00:52:20;;;;;;;3.00;1.90;;;16.70;99.90;;;;;;5033155;28;20180;-80
2022/07/04 00:54:46;;;;;;;3.37;1.70;;;16.70;99.90;;;;;;5032630;28;20238;-79
2022/07/04 00:57:12;;;;;;;2.87;1.57;;;16.60;99.90;;;;;;5032776;28;20447;-80
2022/07/04 00:59:38;;;;;;;4.53;1.90;;;16.50;99.90;;;;;;5033018;28;20515;-80
2022/07/04 01:02:04;;;;;;;3.00;2.20;;;16.50;99.90;;;;;;5032865;28;20562;-79
2022/07/04 01:04:30;;;;;;;3.13;1.83;;;16.60;99.90;;;;;;5032937;28;20254;-79
2022/07/04 01:06:55;;;;;;;4.60;1.67;;;16.60;99.90;;;;;;5057194;22;20506;-80
2022/07/04 01:09:21;;;;;;;3.03;2.00;;;16.60;99.90;;;;;;5052362;28;20175;-80
2022/07/04 01:11:50;;;;;;;5.30;2.07;;;16.40;99.90;;;;;;5052244;28;20539;-80
2022/07/04 01:14:15;;;;;;;2.93;1.63;;;16.30;99.90;;;;;;5052277;28;20179;-78
2022/07/04 01:16:41;;;;;;;3.37;1.80;;;16.30;99.90;;;;;;5051777;28;20437;-78
2022/07/04 01:19:07;;;;;;;6.80;1.83;;;16.30;99.90;;;;;;5052385;28;20175;-79
2022/07/04 01:21:33;;;;;;;2.97;1.87;;;16.20;99.90;;;;;;5052206;28;20179;-78
2022/07/04 01:23:59;;;;;;;2.60;1.30;;;16.20;99.90;;;;;;5034508;28;20548;-78
2022/07/04 01:26:25;;;;;;;2.73;1.50;;;16.20;99.90;;;;;;5051510;28;20438;-78
2022/07/04 01:28:50;;;;;;;5.20;1.70;;;16.30;99.90;;;;;;5052243;28;20262;-79
2022/07/04 01:31:16;;;;;;;4.00;1.97;;;16.30;99.90;;;;;;5052123;28;20497;-79
2022/07/04 01:33:41;;;;;;;3.07;1.23;;;16.30;99.90;;;;;;5052190;28;20258;-78
2022/07/04 01:36:07;;;;;;;3.17;2.00;;;16.20;99.90;;;;;;5050952;28;20196;-78
2022/07/04 01:38:32;;;;;;;3.57;1.80;;;16.10;99.90;;;;;;5051600;28;20211;-78
2022/07/04 01:40:58;;;;;;;3.57;2.20;;;16.10;99.90;;;;;;5052054;28;20186;-78
2022/07/04 01:43:23;;;;;;;4.50;1.80;;;16.10;99.90;;;;;;5050391;28;20215;-78
2022/07/04 01:45:49;;;;;;;4.70;1.60;;;16.00;99.90;;;;;;5051551;28;20218;-78
2022/07/04 01:48:15;;;;;;;2.47;1.57;;;15.90;99.90;;;;;;5051682;28;20226;-78
2022/07/04 01:50:41;;;;;;;2.77;1.80;;;15.90;99.90;;;;;;5052208;28;20168;-78
2022/07/04 01:53:07;;;;;;;5.07;1.50;;;15.80;99.90;;;;;;5052555;28;20410;-79
2022/07/04 01:55:33;;;;;;;2.97;1.57;;;15.80;99.90;;;;;;5052068;28;20454;-78
2022/07/04 01:58:00;;;;;;;4.50;1.60;;;15.80;99.90;;;;;;5052050;28;20229;-79
2022/07/04 02:03:10;;;;;;;3.10;1.57;;;15.90;99.90;;;;;;5052425;28;20401;-79
2022/07/04 02:05:37;;;;;;;2.73;1.77;;;15.80;99.90;;;;;;5050206;28;20474;-78
2022/07/04 02:08:03;;;;;;;3.33;1.47;;;15.90;99.90;;;;;;5051078;28;20171;-79
2022/07/04 02:10:29;;;;;;;2.87;1.50;;;15.90;99.90;;;;;;5051243;28;20414;-78
2022/07/04 02:13:03;;;;;;;2.97;1.67;;;15.90;99.90;;;;;;5050938;28;20410;-79
2022/07/04 02:15:35;;;;;;;3.50;1.80;;;15.90;99.90;;;;;;5052234;28;20274;-80
2022/07/04 02:18:02;;;;;;;2.83;1.87;;;15.80;99.90;;;;;;5052793;28;20398;-78
2022/07/04 02:20:28;;;;;;;3.47;1.60;;;15.80;99.90;;;;;;5052196;28;20410;-79
2022/07/04 02:22:53;;;;;;;4.47;2.10;;;15.80;99.90;;;;;;5052313;28;20425;-78
2022/07/04 02:25:19;;;;;;;3.27;1.53;;;15.70;99.90;;;;;;5052155;28;20218;-79
2022/07/04 02:27:45;;;;;;;3.03;1.60;;;15.60;99.90;;;;;;5051924;28;20525;-78
2022/07/04 02:30:12;;;;;;;5.40;1.80;;;15.60;99.90;;;;;;5052377;28;20175;-79
2022/07/04 02:32:38;;;;;;;2.80;1.60;;;15.60;99.90;;;;;;5051015;28;20966;-79
2022/07/04 02:35:05;;;;;;;2.70;1.57;;;15.50;99.90;;;;;;5051972;28;20939;-79
2022/07/04 02:37:31;;;;;;;3.20;1.80;;;15.50;99.90;;;;;;5050252;28;20513;-79
2022/07/04 02:39:56;;;;;;;4.40;1.80;;;15.50;99.90;;;;;;5051919;28;20488;-79
2022/07/04 02:42:22;;;;;;;2.73;1.83;;;15.60;99.90;;;;;;5052215;28;20234;-78
2022/07/04 02:44:48;;;;;;;3.60;2.00;;;15.60;99.90;;;;;;5050470;28;20214;-79
2022/07/04 02:47:14;;;;;;;3.30;1.70;;;15.50;99.90;;;;;;5052974;28;20196;-79
2022/07/04 02:49:39;;;;;;;7.50;1.77;;;15.60;99.90;;;;;;5055202;28;20168;-79
2022/07/04 02:52:05;;;;;;;4.17;1.80;;;15.60;99.90;;;;;;5055105;28;20417;-79
2022/07/04 02:54:31;;;;;;;2.97;1.73;;;15.60;99.90;;;;;;5054913;28;20176;-79
2022/07/04 02:56:56;;;;;;;5.03;2.10;;;15.60;99.90;;;;;;5054704;28;20218;-79
2022/07/04 02:59:22;;;;;;;2.80;2.00;;;15.60;99.90;;;;;;5055008;28;20182;-79
2022/07/04 03:01:47;;;;;;;4.63;1.67;;;15.50;99.90;;;;;;5058925;28;20179;-80
2022/07/04 03:04:13;;;;;;;3.53;1.73;;;15.50;99.90;;;;;;5059454;28;20203;-79
2022/07/04 03:06:39;;;;;;;6.40;2.10;;;15.50;99.90;;;;;;5021531;28;1087326;-78
2022/07/04 03:09:05;;;;;;;4.00;1.70;;;15.50;99.90;;;;;;5060366;28;20716;-79
2022/07/04 03:11:31;;;;;;;3.70;2.00;;;15.50;99.90;;;;;;5060869;28;20442;-79
2022/07/04 03:13:57;;;;;;;3.63;1.83;;;15.50;99.90;;;;;;5059475;28;20429;-80
2022/07/04 03:16:22;;;;;;;3.17;1.83;;;15.50;99.90;;;;;;5059454;28;20251;-79
2022/07/04 03:18:48;;;;;;;3.83;1.60;;;15.40;99.90;;;;;;5059552;28;20202;-79
2022/07/04 03:21:13;;;;;;;3.17;1.57;;;15.30;99.90;;;;;;5060138;28;20593;-79
2022/07/04 03:23:39;;;;;;;3.97;2.93;;;15.30;99.90;;;;;;5059744;28;20184;-80
2022/07/04 03:26:04;;;;;;;6.33;1.90;;;15.30;99.90;;;;;;5058845;28;20589;-79
2022/07/04 03:28:30;;;;;;;5.50;2.37;;;15.30;99.90;;;;;;5059882;28;20231;-78
2022/07/04 03:30:56;;;;;;;5.30;2.90;;;15.20;99.90;;;;;;5059267;28;20631;-79
2022/07/04 03:33:21;;;;;;;2.97;1.70;;;15.20;99.90;;;;;;5057399;28;20179;-79
2022/07/04 03:35:47;;;;;;;5.00;2.33;;;15.10;99.90;;;;;;5058888;28;20716;-79
2022/07/04 03:38:12;;;;;;;3.60;1.97;;;15.20;99.90;;;;;;5058122;28;20555;-79
2022/07/04 03:40:38;;;;;;;6.03;1.90;;;15.20;99.90;;;;;;5058176;28;20203;-79
2022/07/04 03:43:08;;;;;;;4.37;1.70;;;15.20;99.90;;;;;;5058373;28;20616;-79
2022/07/04 03:45:34;;;;;;;3.30;1.87;;;15.30;99.90;;;;;;5057840;28;20212;-79
2022/07/04 03:48:02;;;;;;;4.00;1.90;;;15.30;99.90;;;;;;5057863;28;20410;-79
2022/07/04 03:50:28;;;;;;;3.70;1.97;;;15.30;99.90;;;;;;5047600;28;20434;-80
2022/07/04 03:52:53;;;;;;;5.40;2.20;;;15.30;99.90;;;;;;5057993;28;20596;-79
2022/07/04 03:55:19;;;;;;;4.17;2.20;;;15.30;99.90;;;;;;5057315;28;20191;-79
2022/07/04 03:57:45;;;;;;;4.37;2.50;;;15.40;99.90;;;;;;5056598;28;20184;-79
2022/07/04 04:00:11;;;;;;;3.60;1.73;;;15.40;99.90;;;;;;5055742;28;20502;-79
2022/07/04 04:02:37;;;;;;;8.40;3.30;;;15.40;99.90;;;;;;5056212;28;20198;-80
2022/07/04 04:08:05;;;;;;;4.20;2.17;;;15.40;99.90;;;;;;4979775;28;20186;-79
2022/07/04 04:10:31;;;;;;;3.77;2.10;;;15.50;99.90;;;;;;5039998;28;20507;-80
2022/07/04 04:12:58;;;;;;;2.93;1.77;;;15.60;99.90;;;;;;5056369;28;20172;-79
2022/07/04 04:15:23;;;;;;;3.73;2.10;;;15.60;99.90;;;;;;5056683;28;20821;-79
2022/07/04 04:17:49;;;;;;;4.37;2.70;;;15.60;99.90;;;;;;5056208;28;20418;-78
2022/07/04 04:20:15;;;;;;;4.70;1.90;;;15.70;99.90;;;;;;5038443;28;20214;-79
2022/07/04 04:22:40;;;;;;;2.77;1.70;;;15.70;99.90;;;;;;5056143;28;20260;-79
2022/07/04 04:25:07;;;;;;;3.40;1.87;;;15.80;99.90;;;;;;5056050;28;20578;-79
2022/07/04 04:27:32;;;;;;;7.00;2.33;;;15.80;99.90;;;;;;5055474;28;20175;-79
2022/07/04 04:29:58;;;;;;;6.13;2.17;;;15.90;99.90;;;;;;5056473;28;20800;-79
2022/07/04 04:32:23;;;;;;;4.60;2.27;;;15.90;99.90;;;;;;5056076;28;20191;-78
2022/07/04 04:34:49;;;;;;;4.07;2.27;;;15.90;99.90;;;;;;5055537;28;20180;-79
2022/07/04 04:37:15;;;;;;;4.30;2.10;;;16.00;99.90;;;;;;5055459;28;20203;-80
2022/07/04 04:39:40;;;;;;;3.63;2.13;;;16.10;99.90;;;;;;5055709;28;20241;-79
2022/07/04 04:42:06;;;;;;;5.60;2.37;;;16.20;99.90;;;;;;5055538;28;20184;-79
2022/07/04 04:44:31;;;;;;;4.57;2.73;;;16.20;99.90;;;;;;5037415;28;20221;-79
2022/07/04 04:46:57;;;;;;;4.50;2.60;;;16.30;99.90;;;;;;5054844;28;20199;-79
2022/07/04 04:49:22;;;;;;;5.70;3.13;;;16.30;99.90;;;;;;5055123;28;20172;-79
2022/07/04 04:51:48;;;;;;;3.50;2.10;;;16.50;99.90;;;;;;5054786;28;20184;-80
2022/07/04 04:54:13;;;;;;;3.97;2.43;;;16.60;99.90;;;;;;5037309;28;20195;-80
2022/07/04 04:56:39;;;;;;;3.63;2.17;;;16.60;99.90;;;;;;5054268;28;20195;-79
2022/07/04 04:59:05;;;;;;;3.37;1.83;;;16.70;99.90;;;;;;5054624;28;20183;-78
2022/07/04 05:01:30;;;;;;;5.20;2.20;;;16.80;99.90;;;;;;5054595;28;20184;-79
2022/07/04 05:03:56;;;;;;;2.83;1.90;;;16.80;99.90;;;;;;5036476;28;20185;-79
2022/07/04 05:06:21;;;;;;;3.27;2.13;;;16.90;99.90;;;;;;5054097;28;20218;-80
2022/07/04 05:08:48;;;;;;;3.10;2.10;;;16.90;99.90;;;;;;5036316;28;20638;-79
2022/07/04 05:11:13;;;;;;;5.90;2.37;;;17.00;99.90;;;;;;5054381;28;20172;-79
2022/07/04 05:13:39;;;;;;;5.00;2.40;;;17.00;99.90;;;;;;5054465;28;20448;-79
2022/07/04 05:16:04;;;;;;;3.90;2.50;;;17.10;99.90;;;;;;5054280;28;20646;-79
2022/07/04 05:18:30;;;;;;;4.47;2.60;;;17.10;99.90;;;;;;5053979;28;20175;-80
2022/07/04 05:20:56;;;;;;;4.77;2.90;;;17.20;99.90;;;;;;5053782;28;20186;-79
2022/07/04 05:23:21;;;;;;;6.13;2.73;;;17.30;99.90;;;;;;5034579;28;20180;-79
2022/07/04 05:25:50;;;;;;;3.03;2.10;;;17.40;99.90;;;;;;5034165;28;20212;-79
2022/07/04 05:28:15;;;;;;;5.67;2.13;;;17.40;99.90;;;;;;5052544;28;20188;-78
2022/07/04 05:30:42;;;;;;;3.77;2.07;;;17.50;99.90;;;;;;5034467;28;20427;-79
2022/07/04 05:33:07;;;;;;;4.23;1.93;;;17.50;99.90;;;;;;5052817;28;20225;-78
2022/07/04 05:35:33;;;;;;;3.83;2.40;;;17.60;99.90;;;;;;5052220;28;20499;-79
2022/07/04 05:37:59;;;;;;;5.37;2.33;;;17.70;99.90;;;;;;5052407;28;20708;-79
2022/07/04 05:40:24;;;;;;;3.60;2.03;;;17.80;99.90;;;;;;5052378;28;20191;-79
2022/07/04 05:42:50;;;;;;;4.60;2.40;;;17.90;99.90;;;;;;5052631;28;20207;-79
2022/07/04 05:45:15;;;;;;;4.40;2.20;;;18.00;99.90;;;;;;5052728;28;20207;-79
2022/07/04 05:47:41;;;;;;;4.07;2.67;;;18.00;99.90;;;;;;5052635;28;20180;-79
2022/07/04 05:50:07;;;;;;;4.10;2.00;;;18.20;99.90;;;;;;5053707;28;20180;-78
2022/07/04 05:52:33;;;;;;;5.90;2.40;;;18.30;99.90;;;;;;5053402;28;20210;-78
2022/07/04 05:54:58;;;;;;;4.00;2.13;;;18.40;99.90;;;;;;5053138;28;20422;-79
2022/07/04 05:57:24;;;;;;;3.83;1.67;;;18.40;99.90;;;;;;5052839;28;20253;-78
2022/07/04 05:59:50;;;;;;;3.40;2.10;;;18.50;99.90;;;;;;5052758;28;20670;-79
2022/07/04 06:02:15;;;;;;;4.20;2.40;;;18.60;99.90;;;;;;5052359;28;20179;-79
2022/07/04 06:04:43;;;;;;;3.53;1.57;;;18.60;99.90;;;;;;5051877;28;20858;-79
2022/07/04 06:07:08;;;;;;;3.50;1.80;;;18.70;99.90;;;;;;5051939;28;20208;-79
2022/07/04 06:09:34;;;;;;;3.30;2.13;;;18.80;99.90;;;;;;5052370;28;20415;-78
2022/07/04 06:12:00;;;;;;;3.30;2.07;;;18.80;99.90;;;;;;5052226;28;20410;-79
2022/07/04 06:14:25;;;;;;;4.00;2.27;;;18.70;99.90;;;;;;5052378;28;20184;-79
2022/07/04 06:16:51;;;;;;;3.47;2.20;;;18.70;99.90;;;;;;5052030;28;20203;-79
2022/07/04 06:19:16;;;;;;;3.33;1.83;;;18.80;99.90;;;;;;5052500;28;20183;-79
2022/07/04 06:21:42;;;;;;;3.37;2.20;;;18.90;99.90;;;;;;5054121;28;20187;-78
2022/07/04 06:24:08;;;;;;;3.67;1.83;;;18.90;99.90;;;;;;5056549;28;20211;-79
2022/07/04 06:26:33;;;;;;;6.83;2.00;;;18.90;99.90;;;;;;5056248;28;20200;-79
2022/07/04 06:28:59;;;;;;;2.93;1.90;;;18.90;99.90;;;;;;5056334;28;20179;-78
2022/07/04 06:31:24;;;;;;;2.87;1.67;;;18.90;99.90;;;;;;5056567;28;20650;-79
2022/07/04 06:36:34;;;;;;;3.57;2.10;;;19.00;99.90;;;;;;5055787;28;20234;-79
2022/07/04 06:39:00;;;;;;;4.10;1.63;;;19.00;99.90;;;;;;5038257;28;20724;-78
2022/07/04 06:41:26;;;;;;;2.80;1.33;;;19.10;99.90;;;;;;5056189;28;20636;-79
2022/07/04 06:43:51;;;;;;;4.20;1.90;;;19.10;99.90;;;;;;5055200;28;20921;-78
2022/07/04 06:46:17;;;;;;;4.77;1.77;;;19.30;99.90;;;;;;5054704;28;20234;-78
2022/07/04 06:48:43;;;;;;;2.43;1.50;;;19.40;99.90;;;;;;5054566;28;20210;-77
2022/07/04 06:51:08;;;;;;;3.30;1.43;;;19.50;99.90;;;;;;5054943;28;20179;-78
2022/07/04 06:53:34;;;;;;;3.57;1.57;;;19.50;99.90;;;;;;5054899;28;20176;-77
2022/07/04 06:55:59;;;;;;;2.67;1.30;;;19.60;99.90;;;;;;5036129;28;20210;-77
2022/07/04 06:58:25;;;;;;;2.83;1.40;;;19.70;99.90;;;;;;5054682;28;20203;-77
2022/07/04 07:00:51;;;;;;;4.83;1.57;;;19.70;99.90;;;;;;5054791;28;20175;-77
2022/07/04 07:03:16;;;;;;;2.83;1.53;;;19.70;99.90;;;;;;5054675;28;20188;-78
2022/07/04 07:05:42;;;;;;;2.87;1.30;;;19.70;99.90;;;;;;5054489;28;20636;-78
2022/07/04 07:08:08;;;;;;;3.17;1.50;;;19.80;99.90;;;;;;5036511;28;20203;-78
2022/07/04 07:10:35;;;;;;;3.77;2.20;;;20.00;99.90;;;;;;5054419;28;20410;-78
2022/07/04 07:13:01;;;;;;;3.73;1.43;;;20.10;99.90;;;;;;5054619;28;20263;-78
2022/07/04 07:15:27;;;;;;;4.73;1.37;;;20.10;99.90;;;;;;5054276;28;20799;-78
2022/07/04 07:17:53;;;;;;;3.60;1.30;;;20.20;99.90;;;;;;5036342;28;20433;-78
2022/07/04 07:20:18;;;;;;;2.27;1.00;;;20.20;99.90;;;;;;5049757;28;20264;-79
2022/07/04 07:22:44;;;;;;;3.70;1.43;;;20.30;99.90;;;;;;5054364;28;20260;-79
2022/07/04 07:25:10;;;;;;;3.77;1.40;;;20.40;99.90;;;;;;5054253;28;20200;-79
2022/07/04 07:27:36;;;;;;;2.83;1.13;;;20.50;99.90;;;;;;5058263;28;20200;-79
2022/07/04 07:30:04;;;;;;;2.20;1.10;;;20.60;99.90;;;;;;5058093;28;20421;-79
2022/07/04 07:32:29;;;;;;;4.03;1.10;;;20.60;99.90;;;;;;5054843;28;20414;-81
2022/07/04 07:34:55;;;;;;;1.90;0.90;;;20.50;99.90;;;;;;5054442;28;20464;-80
2022/07/04 07:37:22;;;;;;;2.20;1.00;;;20.60;99.90;;;;;;5054523;28;20253;-80
2022/07/04 07:39:48;;;;;;;6.00;1.30;;;20.60;99.90;;;;;;5055568;28;20631;-81
2022/07/04 07:42:13;;;;;;;2.00;0.90;;;20.70;99.90;;;;;;5054941;28;20418;-80
2022/07/04 07:44:39;;;;;;;2.10;0.90;;;20.80;99.90;;;;;;5055151;28;20472;-80
2022/07/04 07:47:05;;;;;;;2.13;1.03;;;20.80;99.90;;;;;;5054549;28;20227;-80
2022/07/04 07:49:30;;;;;;;2.60;0.93;;;20.80;99.90;;;;;;5054841;28;20206;-80
2022/07/04 07:51:56;;;;;;;2.67;1.07;;;21.00;99.90;;;;;;5054176;28;20241;-80
2022/07/04 07:54:21;;;;;;;2.27;0.93;;;21.00;99.90;;;;;;5046753;28;20266;-80
2022/07/04 07:56:47;;;;;;;3.50;1.20;;;21.00;99.90;;;;;;5033211;28;20675;-80
2022/07/04 07:59:13;;;;;;;2.27;1.07;;;21.10;99.90;;;;;;5033495;28;20185;-80
2022/07/04 08:01:38;;;;;;;2.53;1.03;;;21.30;99.90;;;;;;5033216;28;20173;-80
2022/07/04 08:06:48;;;;;;;3.47;1.30;;;21.60;99.90;;;;;;5033267;28;20218;-83
2022/07/04 08:09:14;;;;;;;3.90;1.50;;;21.70;99.90;;;;;;5015733;28;20423;-80
2022/07/04 08:11:41;;;;;;;4.40;2.00;;;21.90;99.90;;;;;;5033691;28;20173;-83
2022/07/04 08:14:07;;;;;;;2.20;1.10;;;22.00;99.90;;;;;;5033723;28;20231;-83
2022/07/04 08:16:33;;;;;;;3.03;1.00;;;22.60;99.90;;;;;;5015041;28;20442;-82
2022/07/04 08:18:59;;;;;;;3.90;1.03;;;24.00;99.90;;;;;;5033538;28;20411;-81
2022/07/04 08:21:25;;;;;;;2.90;1.40;;;25.20;99.90;;;;;;5033681;28;20466;-82
2022/07/04 08:23:50;;;;;;;2.40;1.40;;;26.20;99.50;;;;;;5033640;28;20512;-82
2022/07/04 08:26:16;;;;;;;2.90;1.00;;;26.90;96.60;;;;;;5033216;28;20216;-82
2022/07/04 08:28:41;;;;;;;3.10;1.70;;;27.50;96.90;;;;;;5033375;28;20204;-82
2022/07/04 08:31:07;;;;;;;3.53;1.50;;;28.10;90.20;;;;;;5033297;28;20587;-80
2022/07/04 08:33:32;;;;;;;3.27;1.23;;;28.80;85.50;;;;;;5015469;28;20176;-80
2022/07/04 08:35:58;;;;;;;3.30;1.10;;;29.30;85.40;;;;;;5033096;28;20675;-81
2022/07/04 08:38:24;;;;;;;5.60;1.70;;;29.90;73.10;;;;;;5033208;28;20184;-81
2022/07/04 08:40:56;;;;;;;4.47;1.63;;;30.40;70.10;;;;;;5033160;28;20795;-80
2022/07/04 08:43:24;;;;;;;3.90;1.30;;;30.70;63.60;;;;;;5015794;28;20176;-80
2022/07/04 08:45:54;;;;;;;2.87;1.10;;;31.00;62.70;;;;;;5032867;28;20517;-80
2022/07/04 08:48:25;;;;;;;3.13;1.13;;;31.70;63.20;;;;;;5034137;28;20775;-80
2022/07/04 08:50:57;;;;;;;2.50;1.40;;;31.90;55.80;;;;;;5038243;28;20407;-82
2022/07/04 08:53:28;;;;;;;2.77;1.50;;;32.60;56.00;;;;;;5043161;28;20423;-81
2022/07/04 08:58:40;;;;;;;2.50;1.10;;;33.70;52.50;;;;;;5044033;28;20461;-78
2022/07/04 09:01:11;;;;;;;3.67;1.33;;;34.70;51.60;;;;;;5036546;28;20427;-79
2022/07/04 09:03:36;;;;;;;3.63;1.23;;;35.30;47.90;;;;;;5046119;28;20206;-79
2022/07/04 09:06:02;;;;;;;2.57;1.20;;;35.50;46.50;;;;;;5039365;28;20549;-80
2022/07/04 09:08:28;;;;;;;3.80;1.27;;;35.80;46.50;;;;;;5018157;28;20678;-80
2022/07/04 09:10:54;;;;;;;3.00;1.33;;;36.40;46.10;;;;;;5040030;28;20550;-80
2022/07/04 09:13:20;;;;;;;4.10;1.50;;;37.00;43.50;;;;;;5052419;28;20180;-80
2022/07/04 09:15:48;;;;;;;3.70;1.80;;;36.30;41.60;;;;;;5055727;28;20274;-80
2022/07/04 09:18:26;;;;;;;3.33;1.10;;;35.50;41.00;;;;;;5042344;28;20414;-83
2022/07/04 09:20:54;;;;;;;2.90;1.30;;;36.00;42.30;;;;;;5061104;28;20882;-83
2022/07/04 09:23:25;;;;;;;2.40;1.10;;;36.40;41.10;;;;;;5041447;28;20486;-83
2022/07/04 09:26:13;;;;;;;2.47;1.20;;;36.60;40.20;;;;;;5060737;28;20533;-83
2022/07/04 09:28:41;;;;;;;2.30;1.10;;;36.60;40.80;;;;;;5058985;28;20411;-81
2022/07/04 09:31:22;;;;;;;3.00;1.17;;;37.10;40.70;;;;;;5058292;28;20440;-82
2022/07/04 09:33:49;;;;;;;2.97;1.10;;;37.60;39.60;;;;;;5057719;28;20916;-82
2022/07/04 09:36:17;;;;;;;2.43;1.30;;;38.10;38.40;;;;;;5037501;28;20460;-81
2022/07/04 09:38:44;;;;;;;4.27;1.37;;;38.70;36.90;;;;;;5056745;28;20413;-82
2022/07/04 09:41:24;;;;;;;2.57;1.20;;;39.00;36.50;;;;;;5057059;28;20485;-81
2022/07/04 09:44:06;;;;;;;2.97;1.20;;;39.10;35.40;;;;;;5053357;28;20901;-80
2022/07/04 09:46:33;;;;;;;4.53;1.23;;;38.70;35.60;;;;;;5054594;28;20508;-79
2022/07/04 09:48:59;;;;;;;2.90;1.20;;;38.80;36.20;;;;;;5052473;28;20465;-80
2022/07/04 09:51:48;;;;;;;2.80;1.20;;;38.60;36.20;;;;;;5054432;28;20450;-80
2022/07/04 09:54:31;;;;;;;3.00;1.00;;;38.90;36.70;;;;;;5055778;28;20595;-85
2022/07/04 09:56:59;;;;;;;2.87;1.10;;;39.50;36.00;;;;;;5059372;28;20430;-83
2022/07/04 09:59:27;;;;;;;3.40;1.27;;;40.40;36.80;;;;;;5062254;28;20467;-83
2022/07/04 10:02:07;;;;;;;3.00;1.10;;;41.00;34.90;;;;;;5060734;28;20924;-82
2022/07/04 10:04:49;;;;;;;2.50;1.20;;;41.20;34.00;;;;;;5062326;28;20444;-82
2022/07/04 10:07:35;;;;;;;4.00;1.13;;;41.40;32.70;;;;;;5058975;28;20518;-82
2022/07/04 10:10:21;;;;;;;2.20;1.00;;;41.00;32.20;;;;;;5062248;28;20413;-82
2022/07/04 10:12:49;;;;;;;2.97;1.00;;;41.10;32.50;;;;;;5064988;28;20789;-82
2022/07/04 10:15:16;;;;;;;2.40;1.20;;;41.70;32.90;;;;;;5061984;28;20513;-83
2022/07/04 10:17:41;;;;;;;4.17;1.30;;;42.20;32.50;;;;;;5063563;28;20471;-83
2022/07/04 10:20:08;;;;;;;4.63;1.40;;;42.30;31.20;;;;;;5063738;28;20413;-82
2022/07/04 10:22:36;;;;;;;2.60;1.00;;;42.10;31.10;;;;;;5065848;28;20234;-83
2022/07/04 10:25:01;;;;;;;3.33;1.30;;;42.70;32.30;;;;;;5058645;28;20501;-83
2022/07/04 10:27:27;;;;;;;2.23;1.10;;;43.00;30.50;;;;;;5060380;28;20209;-83
2022/07/04 10:29:53;;;;;;;2.20;1.20;;;43.00;30.30;;;;;;5062489;28;20186;-83
2022/07/04 10:32:20;;;;;;;2.30;1.17;;;42.50;30.30;;;;;;5055100;28;20396;-82
2022/07/04 10:34:46;;;;;;;3.30;1.20;;;42.00;29.60;;;;;;5056917;28;20813;-82
2022/07/04 10:37:11;;;;;;;4.00;1.40;;;40.90;30.60;;;;;;5058387;28;20449;-82
2022/07/04 10:39:44;;;;;;;3.77;1.50;;;39.70;31.70;;;;;;5058347;28;20187;-83
2022/07/04 10:42:23;;;;;;;3.00;1.17;;;38.70;30.90;;;;;;5064027;28;20214;-83
2022/07/04 10:44:53;;;;;;;3.50;1.33;;;37.80;32.90;;;;;;5062737;28;20471;-82
2022/07/04 10:47:29;;;;;;;3.17;1.20;;;37.00;34.80;;;;;;5061687;28;20434;-82
2022/07/04 10:49:54;;;;;;;3.30;1.00;;;36.10;33.30;;;;;;5062163;28;20421;-81
2022/07/04 10:52:20;;;;;;;3.47;1.50;;;35.10;34.70;;;;;;5054966;28;20425;-82
2022/07/04 10:54:45;;;;;;;2.63;1.10;;;33.70;35.10;;;;;;5055279;28;20180;-81
2022/07/04 10:57:20;;;;;;;2.53;1.30;;;32.40;37.50;;;;;;5041011;28;20573;-81
2022/07/04 10:59:56;;;;;;;2.50;1.10;;;31.90;39.50;;;;;;5048025;28;20524;-81
2022/07/04 11:02:40;;;;;;;2.77;1.67;;;31.50;40.00;;;;;;5054506;28;21008;-81
2022/07/04 11:05:08;;;;;;;2.40;1.50;;;30.70;41.70;;;;;;5040525;28;20830;-81
2022/07/04 11:07:36;;;;;;;3.73;1.80;;;30.60;41.70;;;;;;5053762;28;20441;-81
2022/07/04 11:10:21;;;;;;;3.23;1.30;;;30.60;42.50;;;;;;5054773;28;20904;-81
2022/07/04 11:12:55;;;;;;;3.23;1.30;;;30.70;41.80;;;;;;5055082;28;20463;-81
2022/07/04 11:15:27;;;;;;;3.00;1.40;;;30.70;42.60;;;;;;5055049;28;20417;-81
2022/07/04 11:17:56;;;;;;;3.63;1.40;;;30.50;42.30;;;;;;5054608;28;20425;-81
2022/07/04 11:20:24;;;;;;;4.20;1.73;;;30.00;42.70;;;;;;5054923;28;20912;-81
2022/07/04 11:22:49;;;;;;;3.80;1.50;;;29.20;42.40;;;;;;5054985;28;20422;-81
2022/07/04 11:25:15;;;;;;;3.27;1.30;;;28.70;44.10;;;;;;5053445;28;20843;-81
2022/07/04 11:27:41;;;;;;;3.23;1.33;;;28.70;45.20;;;;;;5053058;28;20192;-82
2022/07/04 11:30:09;;;;;;;3.10;1.70;;;28.70;44.60;;;;;;5054990;28;20171;-82
2022/07/04 11:32:36;;;;;;;3.30;1.23;;;28.70;45.90;;;;;;5054376;28;20501;-82
2022/07/04 11:35:04;;;;;;;3.10;1.20;;;28.50;45.50;;;;;;5054404;28;20429;-83
2022/07/04 11:37:29;;;;;;;3.30;1.50;;;28.20;46.90;;;;;;5052734;28;20464;-82
2022/07/04 11:45:45;;;;;;;3.53;1.40;;;28.10;45.90;;;;;;5053409;28;20484;-83
2022/07/04 11:48:10;;;;;;;5.30;1.80;;;28.10;44.10;;;;;;5052432;28;20914;-83
2022/07/04 11:50:36;;;;;;;3.63;1.50;;;28.10;45.00;;;;;;5053679;28;20635;-83
2022/07/04 11:53:04;;;;;;;2.40;1.30;;;28.20;45.50;;;;;;5053534;28;20182;-83
2022/07/04 11:55:30;;;;;;;5.20;1.73;;;28.10;44.40;;;;;;5053186;28;20298;-82
2022/07/04 11:57:57;;;;;;;2.83;1.40;;;27.90;44.90;;;;;;5053442;28;20450;-83
2022/07/04 12:00:29;;;;;;;3.10;1.30;;;27.50;45.60;;;;;;5053521;28;20179;-83
2022/07/04 12:02:59;;;;;;;3.83;1.87;;;27.20;46.80;;;;;;5053646;28;20513;-84
2022/07/04 12:05:25;;;;;;;3.33;2.10;;;27.10;47.70;;;;;;5053467;28;20469;-83
2022/07/04 12:07:50;;;;;;;5.03;2.07;;;27.30;48.40;;;;;;5051715;28;21044;-83
2022/07/04 12:10:24;;;;;;;5.27;1.63;;;27.50;46.60;;;;;;5052174;28;20261;-82
2022/07/04 12:12:58;;;;;;;3.40;1.30;;;27.30;46.70;;;;;;5052119;28;20186;-82
2022/07/04 12:15:35;;;;;;;3.03;1.50;;;27.50;48.50;;;;;;5052019;28;20445;-82
2022/07/04 12:18:01;;;;;;;3.23;1.50;;;27.30;48.20;;;;;;5053263;28;20425;-82
2022/07/04 12:20:26;;;;;;;3.47;1.20;;;27.40;46.90;;;;;;5052585;28;20418;-82
2022/07/04 12:22:55;;;;;;;3.40;1.63;;;27.50;48.00;;;;;;5051924;28;20179;-82
2022/07/04 12:25:25;;;;;;;5.40;1.20;;;27.50;46.30;;;;;;5051737;28;20208;-82
2022/07/04 12:27:59;;;;;;;7.60;2.70;;;27.40;48.40;;;;;;5052812;28;20414;-83
2022/07/04 12:30:27;;;;;;;2.97;1.23;;;27.30;48.90;;;;;;5053039;28;20415;-83
2022/07/04 12:33:02;;;;;;;4.43;1.23;;;27.20;46.70;;;;;;5052833;28;20418;-83
2022/07/04 12:35:47;;;;;;;3.07;1.20;;;27.10;47.20;;;;;;5053592;28;20445;-83
2022/07/04 12:38:13;;;;;;;3.70;1.40;;;27.10;48.50;;;;;;5054377;28;20432;-83
2022/07/04 12:41:06;;;;;;;2.70;1.57;;;27.10;49.70;;;;;;5053002;28;20509;-83
2022/07/04 12:43:41;;;;;;;2.40;1.30;;;27.40;50.70;;;;;;5052756;28;20182;-83
2022/07/04 12:46:08;;;;;;;3.90;1.57;;;27.90;47.50;;;;;;5052582;28;20470;-83
2022/07/04 12:48:34;;;;;;;2.80;1.70;;;28.10;47.70;;;;;;5051659;28;20426;-83
2022/07/04 12:51:22;;;;;;;3.40;1.53;;;28.00;47.60;;;;;;5053523;28;20430;-81
2022/07/04 12:53:49;;;;;;;5.40;1.43;;;27.80;46.50;;;;;;5052949;28;20948;-81
2022/07/04 12:56:31;;;;;;;4.30;1.43;;;27.80;45.80;;;;;;5052566;28;20488;-82
2022/07/04 12:59:17;;;;;;;4.33;1.47;;;28.00;47.10;;;;;;5052643;28;20424;-81
2022/07/04 13:01:45;;;;;;;4.20;1.23;;;28.10;47.50;;;;;;5052540;28;20407;-82
2022/07/04 13:04:11;;;;;;;3.27;1.87;;;28.30;47.60;;;;;;5052510;28;20793;-82
2022/07/04 13:06:38;;;;;;;3.53;1.70;;;28.70;46.30;;;;;;5051191;28;20548;-81
2022/07/04 13:09:07;;;;;;;2.87;1.20;;;28.70;47.00;;;;;;5037752;28;20442;-79